sensor_id;sensor_type;location;lat;lon;timestamp;P1;durP1;ratioP1;P2;durP2;ratioP2
6642;SDS011;3357;48.050;7.800;2023-09-07T00:00:58;8.27;;;3.67;;
6642;SDS011;3357;48.050;7.800;2023-09-07T00:03:25;7.80;;;3.97;;
6642;SDS011;3357;48.050;7.800;2023-09-07T00:05:51;4.03;;;3.67;;
6642;SDS011;3357;48.050;7.800;2023-09-07T00:08:16;3.60;;;3.30;;
6642;SDS011;3357;48.050;7.800;2023-09-07T00:10:41;4.10;;;3.80;;
6642;SDS011;3357;48.050;7.800;2023-09-07T00:13:07;4.67;;;3.87;;
6642;SDS011;3357;48.050;7.800;2023-09-07T00:15:35;4.67;;;3.03;;
6642;SDS011;3357;48.050;7.800;2023-09-07T00:18:02;4.63;;;4.17;;
6642;SDS011;3357;48.050;7.800;2023-09-07T00:20:27;4.93;;;4.00;;
6642;SDS011;3357;48.050;7.800;2023-09-07T00:22:53;3.90;;;3.60;;
6642;SDS011;3357;48.050;7.800;2023-09-07T00:25:18;4.40;;;4.00;;
6642;SDS011;3357;48.050;7.800;2023-09-07T00:27:45;4.70;;;4.27;;
6642;SDS011;3357;48.050;7.800;2023-09-07T00:30:10;5.00;;;3.57;;
6642;SDS011;3357;48.050;7.800;2023-09-07T00:32:36;4.60;;;4.30;;
6642;SDS011;3357;48.050;7.800;2023-09-07T00:35:03;3.63;;;3.33;;
6642;SDS011;3357;48.050;7.800;2023-09-07T00:37:29;4.63;;;3.93;;
6642;SDS011;3357;48.050;7.800;2023-09-07T00:39:54;5.33;;;3.77;;
6642;SDS011;3357;48.050;7.800;2023-09-07T00:42:19;6.00;;;4.37;;
6642;SDS011;3357;48.050;7.800;2023-09-07T00:44:44;4.90;;;3.90;;
6642;SDS011;3357;48.050;7.800;2023-09-07T00:47:10;4.50;;;4.03;;
6642;SDS011;3357;48.050;7.800;2023-09-07T00:49:36;5.73;;;4.90;;
6642;SDS011;3357;48.050;7.800;2023-09-07T00:52:02;7.63;;;4.00;;
6642;SDS011;3357;48.050;7.800;2023-09-07T00:54:29;4.60;;;4.20;;
6642;SDS011;3357;48.050;7.800;2023-09-07T00:56:55;4.20;;;3.90;;
6642;SDS011;3357;48.050;7.800;2023-09-07T00:59:20;5.97;;;4.70;;
6642;SDS011;3357;48.050;7.800;2023-09-07T01:01:46;6.27;;;4.07;;
6642;SDS011;3357;48.050;7.800;2023-09-07T01:04:11;5.70;;;4.00;;
6642;SDS011;3357;48.050;7.800;2023-09-07T01:06:37;4.40;;;4.00;;
6642;SDS011;3357;48.050;7.800;2023-09-07T01:09:06;5.87;;;3.97;;
6642;SDS011;3357;48.050;7.800;2023-09-07T01:11:36;3.90;;;3.43;;
6642;SDS011;3357;48.050;7.800;2023-09-07T01:14:02;5.23;;;3.93;;
6642;SDS011;3357;48.050;7.800;2023-09-07T01:16:29;4.20;;;3.80;;
6642;SDS011;3357;48.050;7.800;2023-09-07T01:18:54;5.70;;;4.60;;
6642;SDS011;3357;48.050;7.800;2023-09-07T01:21:20;4.90;;;4.00;;
6642;SDS011;3357;48.050;7.800;2023-09-07T01:23:47;4.73;;;4.23;;
6642;SDS011;3357;48.050;7.800;2023-09-07T01:26:12;9.10;;;4.13;;
6642;SDS011;3357;48.050;7.800;2023-09-07T01:28:38;4.80;;;4.40;;
6642;SDS011;3357;48.050;7.800;2023-09-07T01:31:03;8.40;;;4.90;;
6642;SDS011;3357;48.050;7.800;2023-09-07T01:33:29;9.23;;;4.33;;
6642;SDS011;3357;48.050;7.800;2023-09-07T01:35:55;5.50;;;4.17;;
6642;SDS011;3357;48.050;7.800;2023-09-07T01:38:20;4.27;;;3.87;;
6642;SDS011;3357;48.050;7.800;2023-09-07T01:40:45;6.17;;;4.70;;
6642;SDS011;3357;48.050;7.800;2023-09-07T01:43:11;6.80;;;4.57;;
6642;SDS011;3357;48.050;7.800;2023-09-07T01:45:36;5.37;;;4.10;;
6642;SDS011;3357;48.050;7.800;2023-09-07T01:48:01;3.60;;;3.30;;
6642;SDS011;3357;48.050;7.800;2023-09-07T01:50:28;6.03;;;4.40;;
6642;SDS011;3357;48.050;7.800;2023-09-07T01:52:53;4.37;;;4.00;;
6642;SDS011;3357;48.050;7.800;2023-09-07T01:55:18;4.47;;;4.03;;
6642;SDS011;3357;48.050;7.800;2023-09-07T01:57:44;4.90;;;3.63;;
6642;SDS011;3357;48.050;7.800;2023-09-07T02:00:09;4.10;;;3.70;;
6642;SDS011;3357;48.050;7.800;2023-09-07T02:02:36;7.83;;;3.90;;
6642;SDS011;3357;48.050;7.800;2023-09-07T02:05:01;7.27;;;3.70;;
6642;SDS011;3357;48.050;7.800;2023-09-07T02:07:26;6.40;;;3.70;;
6642;SDS011;3357;48.050;7.800;2023-09-07T02:09:51;3.90;;;3.30;;
6642;SDS011;3357;48.050;7.800;2023-09-07T02:12:17;3.80;;;3.50;;
6642;SDS011;3357;48.050;7.800;2023-09-07T02:14:42;3.03;;;2.83;;
6642;SDS011;3357;48.050;7.800;2023-09-07T02:17:08;3.43;;;3.17;;
6642;SDS011;3357;48.050;7.800;2023-09-07T02:19:33;2.83;;;2.60;;
6642;SDS011;3357;48.050;7.800;2023-09-07T02:21:58;4.70;;;2.73;;
6642;SDS011;3357;48.050;7.800;2023-09-07T02:24:24;4.17;;;3.77;;
6642;SDS011;3357;48.050;7.800;2023-09-07T02:26:49;3.37;;;2.90;;
6642;SDS011;3357;48.050;7.800;2023-09-07T02:29:15;3.40;;;3.00;;
6642;SDS011;3357;48.050;7.800;2023-09-07T02:31:40;2.43;;;2.33;;
6642;SDS011;3357;48.050;7.800;2023-09-07T02:34:06;2.90;;;2.70;;
6642;SDS011;3357;48.050;7.800;2023-09-07T02:36:32;1.80;;;1.70;;
6642;SDS011;3357;48.050;7.800;2023-09-07T02:38:58;1.87;;;1.77;;
6642;SDS011;3357;48.050;7.800;2023-09-07T02:41:23;3.03;;;2.83;;
6642;SDS011;3357;48.050;7.800;2023-09-07T02:43:48;3.10;;;2.50;;
6642;SDS011;3357;48.050;7.800;2023-09-07T02:46:13;4.37;;;3.33;;
6642;SDS011;3357;48.050;7.800;2023-09-07T02:48:39;4.60;;;3.47;;
6642;SDS011;3357;48.050;7.800;2023-09-07T02:51:04;3.77;;;3.30;;
6642;SDS011;3357;48.050;7.800;2023-09-07T02:53:30;3.03;;;2.70;;
6642;SDS011;3357;48.050;7.800;2023-09-07T02:55:55;4.50;;;3.20;;
6642;SDS011;3357;48.050;7.800;2023-09-07T02:58:21;3.33;;;2.60;;
6642;SDS011;3357;48.050;7.800;2023-09-07T03:00:47;3.97;;;3.43;;
6642;SDS011;3357;48.050;7.800;2023-09-07T03:03:13;3.80;;;3.50;;
6642;SDS011;3357;48.050;7.800;2023-09-07T03:05:39;6.73;;;3.30;;
6642;SDS011;3357;48.050;7.800;2023-09-07T03:08:05;3.83;;;3.53;;
6642;SDS011;3357;48.050;7.800;2023-09-07T03:10:31;3.30;;;3.00;;
6642;SDS011;3357;48.050;7.800;2023-09-07T03:12:56;4.80;;;3.40;;
6642;SDS011;3357;48.050;7.800;2023-09-07T03:15:22;4.03;;;3.53;;
6642;SDS011;3357;48.050;7.800;2023-09-07T03:17:47;5.40;;;4.30;;
6642;SDS011;3357;48.050;7.800;2023-09-07T03:20:12;4.23;;;3.87;;
6642;SDS011;3357;48.050;7.800;2023-09-07T03:22:40;4.70;;;3.47;;
6642;SDS011;3357;48.050;7.800;2023-09-07T03:25:06;3.80;;;3.33;;
6642;SDS011;3357;48.050;7.800;2023-09-07T03:27:32;9.00;;;3.70;;
6642;SDS011;3357;48.050;7.800;2023-09-07T03:29:57;4.80;;;3.17;;
6642;SDS011;3357;48.050;7.800;2023-09-07T03:32:23;3.27;;;2.97;;
6642;SDS011;3357;48.050;7.800;2023-09-07T03:34:48;5.67;;;2.80;;
6642;SDS011;3357;48.050;7.800;2023-09-07T03:37:13;2.90;;;2.70;;
6642;SDS011;3357;48.050;7.800;2023-09-07T03:39:38;3.53;;;3.23;;
6642;SDS011;3357;48.050;7.800;2023-09-07T03:42:04;4.27;;;3.83;;
6642;SDS011;3357;48.050;7.800;2023-09-07T03:44:29;5.23;;;3.97;;
6642;SDS011;3357;48.050;7.800;2023-09-07T03:46:54;5.00;;;4.07;;
6642;SDS011;3357;48.050;7.800;2023-09-07T03:49:19;4.97;;;3.53;;
6642;SDS011;3357;48.050;7.800;2023-09-07T03:51:45;5.73;;;3.63;;
6642;SDS011;3357;48.050;7.800;2023-09-07T03:54:10;10.23;;;3.67;;
6642;SDS011;3357;48.050;7.800;2023-09-07T03:56:35;5.60;;;3.63;;
6642;SDS011;3357;48.050;7.800;2023-09-07T03:59:01;5.17;;;3.90;;
6642;SDS011;3357;48.050;7.800;2023-09-07T04:01:26;8.13;;;3.53;;
6642;SDS011;3357;48.050;7.800;2023-09-07T04:03:51;3.50;;;3.10;;
6642;SDS011;3357;48.050;7.800;2023-09-07T04:06:16;3.57;;;3.27;;
6642;SDS011;3357;48.050;7.800;2023-09-07T04:08:42;3.00;;;2.80;;
6642;SDS011;3357;48.050;7.800;2023-09-07T04:11:07;4.77;;;3.50;;
6642;SDS011;3357;48.050;7.800;2023-09-07T04:13:32;7.20;;;3.93;;
6642;SDS011;3357;48.050;7.800;2023-09-07T04:15:58;3.50;;;3.20;;
6642;SDS011;3357;48.050;7.800;2023-09-07T04:18:23;4.27;;;3.73;;
6642;SDS011;3357;48.050;7.800;2023-09-07T04:20:48;6.70;;;3.60;;
6642;SDS011;3357;48.050;7.800;2023-09-07T04:23:14;4.30;;;3.63;;
6642;SDS011;3357;48.050;7.800;2023-09-07T04:25:39;4.10;;;3.70;;
6642;SDS011;3357;48.050;7.800;2023-09-07T04:28:05;8.10;;;3.30;;
6642;SDS011;3357;48.050;7.800;2023-09-07T04:30:31;4.13;;;3.50;;
6642;SDS011;3357;48.050;7.800;2023-09-07T04:32:56;3.70;;;3.33;;
6642;SDS011;3357;48.050;7.800;2023-09-07T04:35:28;6.67;;;4.03;;
6642;SDS011;3357;48.050;7.800;2023-09-07T04:37:55;3.87;;;3.57;;
6642;SDS011;3357;48.050;7.800;2023-09-07T04:40:20;4.27;;;3.87;;
6642;SDS011;3357;48.050;7.800;2023-09-07T04:42:45;3.70;;;3.40;;
6642;SDS011;3357;48.050;7.800;2023-09-07T04:45:10;5.17;;;3.90;;
6642;SDS011;3357;48.050;7.800;2023-09-07T04:47:36;6.63;;;3.60;;
6642;SDS011;3357;48.050;7.800;2023-09-07T04:50:02;3.57;;;3.27;;
6642;SDS011;3357;48.050;7.800;2023-09-07T04:52:29;5.50;;;3.50;;
6642;SDS011;3357;48.050;7.800;2023-09-07T04:54:54;3.87;;;3.50;;
6642;SDS011;3357;48.050;7.800;2023-09-07T04:57:19;6.10;;;4.47;;
6642;SDS011;3357;48.050;7.800;2023-09-07T04:59:44;4.43;;;3.47;;
6642;SDS011;3357;48.050;7.800;2023-09-07T05:02:10;3.83;;;3.30;;
6642;SDS011;3357;48.050;7.800;2023-09-07T05:04:36;3.90;;;3.33;;
6642;SDS011;3357;48.050;7.800;2023-09-07T05:07:02;5.80;;;3.80;;
6642;SDS011;3357;48.050;7.800;2023-09-07T05:09:27;4.87;;;3.30;;
6642;SDS011;3357;48.050;7.800;2023-09-07T05:11:54;4.63;;;2.80;;
6642;SDS011;3357;48.050;7.800;2023-09-07T05:14:20;3.73;;;3.00;;
6642;SDS011;3357;48.050;7.800;2023-09-07T05:16:45;8.70;;;3.20;;
6642;SDS011;3357;48.050;7.800;2023-09-07T05:19:10;5.00;;;3.30;;
6642;SDS011;3357;48.050;7.800;2023-09-07T05:21:36;5.63;;;3.47;;
6642;SDS011;3357;48.050;7.800;2023-09-07T05:24:01;5.53;;;3.37;;
6642;SDS011;3357;48.050;7.800;2023-09-07T05:26:26;5.07;;;3.70;;
6642;SDS011;3357;48.050;7.800;2023-09-07T05:28:53;4.33;;;3.83;;
6642;SDS011;3357;48.050;7.800;2023-09-07T05:31:18;4.20;;;3.77;;
6642;SDS011;3357;48.050;7.800;2023-09-07T05:33:43;3.33;;;3.00;;
6642;SDS011;3357;48.050;7.800;2023-09-07T05:36:08;3.60;;;3.13;;
6642;SDS011;3357;48.050;7.800;2023-09-07T05:38:34;3.57;;;2.80;;
6642;SDS011;3357;48.050;7.800;2023-09-07T05:40:59;5.13;;;2.80;;
6642;SDS011;3357;48.050;7.800;2023-09-07T05:43:24;5.40;;;3.33;;
6642;SDS011;3357;48.050;7.800;2023-09-07T05:45:50;9.87;;;3.27;;
6642;SDS011;3357;48.050;7.800;2023-09-07T05:48:15;3.43;;;2.97;;
6642;SDS011;3357;48.050;7.800;2023-09-07T05:50:43;5.30;;;2.83;;
6642;SDS011;3357;48.050;7.800;2023-09-07T05:53:09;3.73;;;3.20;;
6642;SDS011;3357;48.050;7.800;2023-09-07T05:55:34;3.63;;;3.23;;
6642;SDS011;3357;48.050;7.800;2023-09-07T05:57:59;3.10;;;2.63;;
6642;SDS011;3357;48.050;7.800;2023-09-07T06:00:25;5.87;;;2.60;;
6642;SDS011;3357;48.050;7.800;2023-09-07T06:02:50;5.60;;;3.47;;
6642;SDS011;3357;48.050;7.800;2023-09-07T06:05:16;5.43;;;3.57;;
6642;SDS011;3357;48.050;7.800;2023-09-07T06:07:42;6.80;;;3.67;;
6642;SDS011;3357;48.050;7.800;2023-09-07T06:10:08;5.03;;;3.40;;
6642;SDS011;3357;48.050;7.800;2023-09-07T06:12:34;4.47;;;3.67;;
6642;SDS011;3357;48.050;7.800;2023-09-07T06:14:59;4.10;;;3.70;;
6642;SDS011;3357;48.050;7.800;2023-09-07T06:17:25;6.90;;;4.10;;
6642;SDS011;3357;48.050;7.800;2023-09-07T06:19:51;5.60;;;3.60;;
6642;SDS011;3357;48.050;7.800;2023-09-07T06:22:16;10.40;;;4.40;;
6642;SDS011;3357;48.050;7.800;2023-09-07T06:24:41;5.00;;;4.37;;
6642;SDS011;3357;48.050;7.800;2023-09-07T06:27:06;4.83;;;4.33;;
6642;SDS011;3357;48.050;7.800;2023-09-07T06:29:32;4.90;;;4.20;;
6642;SDS011;3357;48.050;7.800;2023-09-07T06:31:57;8.53;;;5.03;;
6642;SDS011;3357;48.050;7.800;2023-09-07T06:34:23;9.00;;;4.20;;
6642;SDS011;3357;48.050;7.800;2023-09-07T06:36:48;5.27;;;4.30;;
6642;SDS011;3357;48.050;7.800;2023-09-07T06:39:14;7.27;;;4.20;;
6642;SDS011;3357;48.050;7.800;2023-09-07T06:41:39;5.10;;;3.90;;
6642;SDS011;3357;48.050;7.800;2023-09-07T06:44:04;5.30;;;4.80;;
6642;SDS011;3357;48.050;7.800;2023-09-07T06:46:29;6.60;;;4.23;;
6642;SDS011;3357;48.050;7.800;2023-09-07T06:48:55;6.90;;;4.80;;
6642;SDS011;3357;48.050;7.800;2023-09-07T06:51:20;4.80;;;4.27;;
6642;SDS011;3357;48.050;7.800;2023-09-07T06:53:45;6.00;;;4.60;;
6642;SDS011;3357;48.050;7.800;2023-09-07T06:56:11;7.93;;;5.13;;
6642;SDS011;3357;48.050;7.800;2023-09-07T06:58:36;4.30;;;4.00;;
6642;SDS011;3357;48.050;7.800;2023-09-07T07:01:01;9.70;;;4.73;;
6642;SDS011;3357;48.050;7.800;2023-09-07T07:03:28;6.90;;;4.27;;
6642;SDS011;3357;48.050;7.800;2023-09-07T07:05:54;6.70;;;4.73;;
6642;SDS011;3357;48.050;7.800;2023-09-07T07:08:20;4.80;;;4.37;;
6642;SDS011;3357;48.050;7.800;2023-09-07T07:10:45;6.97;;;5.20;;
6642;SDS011;3357;48.050;7.800;2023-09-07T07:13:10;5.63;;;5.00;;
6642;SDS011;3357;48.050;7.800;2023-09-07T07:15:35;4.90;;;4.30;;
6642;SDS011;3357;48.050;7.800;2023-09-07T07:18:01;4.87;;;4.40;;
6642;SDS011;3357;48.050;7.800;2023-09-07T07:20:30;6.50;;;4.67;;
6642;SDS011;3357;48.050;7.800;2023-09-07T07:22:56;5.17;;;4.20;;
6642;SDS011;3357;48.050;7.800;2023-09-07T07:25:21;8.50;;;5.67;;
6642;SDS011;3357;48.050;7.800;2023-09-07T07:27:46;7.40;;;5.10;;
6642;SDS011;3357;48.050;7.800;2023-09-07T07:30:12;5.60;;;4.77;;
6642;SDS011;3357;48.050;7.800;2023-09-07T07:32:37;9.53;;;5.03;;
6642;SDS011;3357;48.050;7.800;2023-09-07T07:35:02;4.77;;;4.30;;
6642;SDS011;3357;48.050;7.800;2023-09-07T07:37:28;5.73;;;4.40;;
6642;SDS011;3357;48.050;7.800;2023-09-07T07:39:53;5.77;;;5.00;;
6642;SDS011;3357;48.050;7.800;2023-09-07T07:42:19;5.57;;;4.97;;
6642;SDS011;3357;48.050;7.800;2023-09-07T07:44:45;7.50;;;4.30;;
6642;SDS011;3357;48.050;7.800;2023-09-07T07:47:10;4.10;;;3.70;;
6642;SDS011;3357;48.050;7.800;2023-09-07T07:49:36;6.43;;;3.83;;
6642;SDS011;3357;48.050;7.800;2023-09-07T07:52:01;5.40;;;4.17;;
6642;SDS011;3357;48.050;7.800;2023-09-07T07:54:27;5.60;;;4.47;;
6642;SDS011;3357;48.050;7.800;2023-09-07T07:56:57;5.13;;;3.73;;
6642;SDS011;3357;48.050;7.800;2023-09-07T07:59:22;6.90;;;4.20;;
6642;SDS011;3357;48.050;7.800;2023-09-07T08:01:47;6.30;;;3.90;;
6642;SDS011;3357;48.050;7.800;2023-09-07T08:04:12;4.60;;;4.00;;
6642;SDS011;3357;48.050;7.800;2023-09-07T08:06:38;5.27;;;4.50;;
6642;SDS011;3357;48.050;7.800;2023-09-07T08:09:03;6.97;;;3.97;;
6642;SDS011;3357;48.050;7.800;2023-09-07T08:11:28;4.57;;;4.17;;
6642;SDS011;3357;48.050;7.800;2023-09-07T08:13:54;3.30;;;3.10;;
6642;SDS011;3357;48.050;7.800;2023-09-07T08:16:19;7.47;;;4.37;;
6642;SDS011;3357;48.050;7.800;2023-09-07T08:18:44;4.70;;;4.07;;
6642;SDS011;3357;48.050;7.800;2023-09-07T08:21:10;5.93;;;3.97;;
6642;SDS011;3357;48.050;7.800;2023-09-07T08:23:35;4.20;;;3.80;;
6642;SDS011;3357;48.050;7.800;2023-09-07T08:26:01;4.50;;;4.10;;
6642;SDS011;3357;48.050;7.800;2023-09-07T08:28:27;4.50;;;4.10;;
6642;SDS011;3357;48.050;7.800;2023-09-07T08:30:54;4.70;;;4.20;;
6642;SDS011;3357;48.050;7.800;2023-09-07T08:33:23;10.53;;;4.67;;
6642;SDS011;3357;48.050;7.800;2023-09-07T08:35:52;5.30;;;4.23;;
6642;SDS011;3357;48.050;7.800;2023-09-07T08:38:18;6.50;;;4.47;;
6642;SDS011;3357;48.050;7.800;2023-09-07T08:40:47;7.43;;;4.70;;
6642;SDS011;3357;48.050;7.800;2023-09-07T08:43:12;7.40;;;4.60;;
6642;SDS011;3357;48.050;7.800;2023-09-07T08:45:41;5.00;;;4.53;;
6642;SDS011;3357;48.050;7.800;2023-09-07T08:48:08;7.47;;;4.40;;
6642;SDS011;3357;48.050;7.800;2023-09-07T08:50:33;18.30;;;5.00;;
6642;SDS011;3357;48.050;7.800;2023-09-07T08:53:02;11.00;;;4.87;;
6642;SDS011;3357;48.050;7.800;2023-09-07T08:55:28;6.70;;;4.80;;
6642;SDS011;3357;48.050;7.800;2023-09-07T08:57:53;4.53;;;4.13;;
6642;SDS011;3357;48.050;7.800;2023-09-07T09:00:19;5.73;;;4.47;;
6642;SDS011;3357;48.050;7.800;2023-09-07T09:02:48;5.30;;;4.37;;
6642;SDS011;3357;48.050;7.800;2023-09-07T09:05:14;8.70;;;4.70;;
6642;SDS011;3357;48.050;7.800;2023-09-07T09:07:39;5.90;;;4.77;;
6642;SDS011;3357;48.050;7.800;2023-09-07T09:10:08;5.03;;;4.47;;
6642;SDS011;3357;48.050;7.800;2023-09-07T09:12:34;4.03;;;3.73;;
6642;SDS011;3357;48.050;7.800;2023-09-07T09:15:00;7.30;;;4.40;;
6642;SDS011;3357;48.050;7.800;2023-09-07T09:17:26;4.80;;;4.40;;
6642;SDS011;3357;48.050;7.800;2023-09-07T09:19:51;4.50;;;4.10;;
6642;SDS011;3357;48.050;7.800;2023-09-07T09:22:17;4.83;;;4.43;;
6642;SDS011;3357;48.050;7.800;2023-09-07T09:24:42;6.23;;;4.77;;
6642;SDS011;3357;48.050;7.800;2023-09-07T09:27:07;5.20;;;4.70;;
6642;SDS011;3357;48.050;7.800;2023-09-07T09:29:33;9.03;;;4.30;;
6642;SDS011;3357;48.050;7.800;2023-09-07T09:32:06;5.37;;;4.57;;
6642;SDS011;3357;48.050;7.800;2023-09-07T09:34:35;6.07;;;4.37;;
6642;SDS011;3357;48.050;7.800;2023-09-07T09:37:01;6.40;;;5.37;;
6642;SDS011;3357;48.050;7.800;2023-09-07T09:39:31;5.70;;;4.43;;
6642;SDS011;3357;48.050;7.800;2023-09-07T09:41:56;7.50;;;4.30;;
6642;SDS011;3357;48.050;7.800;2023-09-07T09:44:22;5.97;;;4.80;;
6642;SDS011;3357;48.050;7.800;2023-09-07T09:46:51;7.93;;;5.20;;
6642;SDS011;3357;48.050;7.800;2023-09-07T09:49:19;7.70;;;5.10;;
6642;SDS011;3357;48.050;7.800;2023-09-07T09:51:45;5.47;;;4.97;;
6642;SDS011;3357;48.050;7.800;2023-09-07T09:54:13;5.27;;;4.77;;
6642;SDS011;3357;48.050;7.800;2023-09-07T09:56:39;6.67;;;4.10;;
6642;SDS011;3357;48.050;7.800;2023-09-07T09:59:04;12.93;;;4.70;;
6642;SDS011;3357;48.050;7.800;2023-09-07T10:01:29;11.40;;;4.43;;
6642;SDS011;3357;48.050;7.800;2023-09-07T10:03:54;5.40;;;4.23;;
6642;SDS011;3357;48.050;7.800;2023-09-07T10:06:24;5.80;;;4.57;;
6642;SDS011;3357;48.050;7.800;2023-09-07T10:08:52;7.43;;;4.57;;
6642;SDS011;3357;48.050;7.800;2023-09-07T10:11:36;20.60;;;5.07;;
6642;SDS011;3357;48.050;7.800;2023-09-07T10:14:03;13.50;;;5.70;;
6642;SDS011;3357;48.050;7.800;2023-09-07T10:16:40;5.20;;;4.70;;
6642;SDS011;3357;48.050;7.800;2023-09-07T10:19:16;5.50;;;5.00;;
6642;SDS011;3357;48.050;7.800;2023-09-07T10:21:42;5.03;;;4.53;;
6642;SDS011;3357;48.050;7.800;2023-09-07T10:24:08;6.20;;;5.30;;
6642;SDS011;3357;48.050;7.800;2023-09-07T10:26:34;6.20;;;5.10;;
6642;SDS011;3357;48.050;7.800;2023-09-07T10:28:59;5.77;;;5.17;;
6642;SDS011;3357;48.050;7.800;2023-09-07T10:31:27;9.10;;;5.70;;
6642;SDS011;3357;48.050;7.800;2023-09-07T10:33:52;7.13;;;5.70;;
6642;SDS011;3357;48.050;7.800;2023-09-07T10:36:24;6.20;;;5.17;;
6642;SDS011;3357;48.050;7.800;2023-09-07T10:38:51;5.00;;;4.50;;
6642;SDS011;3357;48.050;7.800;2023-09-07T10:41:19;12.43;;;5.03;;
6642;SDS011;3357;48.050;7.800;2023-09-07T10:43:48;5.00;;;4.37;;
6642;SDS011;3357;48.050;7.800;2023-09-07T10:46:14;10.50;;;4.80;;
6642;SDS011;3357;48.050;7.800;2023-09-07T10:48:43;5.40;;;4.90;;
6642;SDS011;3357;48.050;7.800;2023-09-07T10:51:08;4.90;;;4.50;;
6642;SDS011;3357;48.050;7.800;2023-09-07T10:53:34;5.30;;;4.07;;
6642;SDS011;3357;48.050;7.800;2023-09-07T10:56:01;4.83;;;4.17;;
6642;SDS011;3357;48.050;7.800;2023-09-07T10:58:29;4.97;;;4.33;;
6642;SDS011;3357;48.050;7.800;2023-09-07T11:00:55;5.17;;;4.20;;
6642;SDS011;3357;48.050;7.800;2023-09-07T11:03:20;4.80;;;4.40;;
6642;SDS011;3357;48.050;7.800;2023-09-07T11:05:46;4.77;;;4.03;;
6642;SDS011;3357;48.050;7.800;2023-09-07T11:08:11;7.53;;;5.03;;
6642;SDS011;3357;48.050;7.800;2023-09-07T11:10:37;9.00;;;4.50;;
6642;SDS011;3357;48.050;7.800;2023-09-07T11:13:03;5.83;;;3.73;;
6642;SDS011;3357;48.050;7.800;2023-09-07T11:15:29;4.50;;;3.90;;
6642;SDS011;3357;48.050;7.800;2023-09-07T11:17:58;4.60;;;4.20;;
6642;SDS011;3357;48.050;7.800;2023-09-07T11:20:29;10.00;;;4.37;;
6642;SDS011;3357;48.050;7.800;2023-09-07T11:22:55;5.93;;;4.27;;
6642;SDS011;3357;48.050;7.800;2023-09-07T11:25:20;4.90;;;4.20;;
6642;SDS011;3357;48.050;7.800;2023-09-07T11:27:45;7.73;;;3.63;;
6642;SDS011;3357;48.050;7.800;2023-09-07T11:30:10;4.00;;;3.70;;
6642;SDS011;3357;48.050;7.800;2023-09-07T11:32:36;3.80;;;3.50;;
6642;SDS011;3357;48.050;7.800;2023-09-07T11:35:02;5.40;;;4.00;;
6642;SDS011;3357;48.050;7.800;2023-09-07T11:37:32;3.97;;;3.67;;
6642;SDS011;3357;48.050;7.800;2023-09-07T11:39:57;5.00;;;4.30;;
6642;SDS011;3357;48.050;7.800;2023-09-07T11:42:22;6.10;;;3.97;;
6642;SDS011;3357;48.050;7.800;2023-09-07T11:44:48;4.03;;;3.73;;
6642;SDS011;3357;48.050;7.800;2023-09-07T11:47:13;9.20;;;3.77;;
6642;SDS011;3357;48.050;7.800;2023-09-07T11:49:39;6.10;;;4.23;;
6642;SDS011;3357;48.050;7.800;2023-09-07T11:52:04;6.57;;;4.20;;
6642;SDS011;3357;48.050;7.800;2023-09-07T11:54:30;3.33;;;3.13;;
6642;SDS011;3357;48.050;7.800;2023-09-07T11:56:55;6.03;;;4.00;;
6642;SDS011;3357;48.050;7.800;2023-09-07T11:59:21;4.17;;;3.77;;
6642;SDS011;3357;48.050;7.800;2023-09-07T12:01:46;4.03;;;3.43;;
6642;SDS011;3357;48.050;7.800;2023-09-07T12:04:11;4.40;;;4.00;;
6642;SDS011;3357;48.050;7.800;2023-09-07T12:06:38;3.90;;;3.30;;
6642;SDS011;3357;48.050;7.800;2023-09-07T12:09:04;3.57;;;3.37;;
6642;SDS011;3357;48.050;7.800;2023-09-07T12:11:31;4.00;;;3.53;;
6642;SDS011;3357;48.050;7.800;2023-09-07T12:13:57;4.93;;;3.37;;
6642;SDS011;3357;48.050;7.800;2023-09-07T12:16:23;3.97;;;3.67;;
6642;SDS011;3357;48.050;7.800;2023-09-07T12:18:49;5.50;;;3.70;;
6642;SDS011;3357;48.050;7.800;2023-09-07T12:21:15;3.73;;;3.47;;
6642;SDS011;3357;48.050;7.800;2023-09-07T12:23:40;4.13;;;3.73;;
6642;SDS011;3357;48.050;7.800;2023-09-07T12:26:05;5.70;;;3.73;;
6642;SDS011;3357;48.050;7.800;2023-09-07T12:28:31;3.90;;;3.60;;
6642;SDS011;3357;48.050;7.800;2023-09-07T12:30:57;4.13;;;3.57;;
6642;SDS011;3357;48.050;7.800;2023-09-07T12:33:23;4.80;;;3.70;;
6642;SDS011;3357;48.050;7.800;2023-09-07T12:35:48;9.13;;;3.40;;
6642;SDS011;3357;48.050;7.800;2023-09-07T12:38:14;3.90;;;3.67;;
6642;SDS011;3357;48.050;7.800;2023-09-07T12:40:42;7.10;;;3.57;;
6642;SDS011;3357;48.050;7.800;2023-09-07T12:43:09;3.00;;;2.80;;
6642;SDS011;3357;48.050;7.800;2023-09-07T12:45:34;3.70;;;3.40;;
6642;SDS011;3357;48.050;7.800;2023-09-07T12:47:59;3.63;;;3.30;;
6642;SDS011;3357;48.050;7.800;2023-09-07T12:50:26;3.27;;;3.07;;
6642;SDS011;3357;48.050;7.800;2023-09-07T12:52:51;3.70;;;3.50;;
6642;SDS011;3357;48.050;7.800;2023-09-07T12:55:17;10.53;;;3.67;;
6642;SDS011;3357;48.050;7.800;2023-09-07T12:57:43;5.10;;;3.70;;
6642;SDS011;3357;48.050;7.800;2023-09-07T13:00:09;4.00;;;3.70;;
6642;SDS011;3357;48.050;7.800;2023-09-07T13:02:35;3.17;;;2.97;;
6642;SDS011;3357;48.050;7.800;2023-09-07T13:05:01;3.50;;;3.30;;
6642;SDS011;3357;48.050;7.800;2023-09-07T13:07:30;8.00;;;3.53;;
6642;SDS011;3357;48.050;7.800;2023-09-07T13:09:55;5.30;;;3.97;;
6642;SDS011;3357;48.050;7.800;2023-09-07T13:12:20;5.00;;;3.53;;
6642;SDS011;3357;48.050;7.800;2023-09-07T13:14:46;4.00;;;3.70;;
6642;SDS011;3357;48.050;7.800;2023-09-07T13:17:12;3.30;;;3.10;;
6642;SDS011;3357;48.050;7.800;2023-09-07T13:19:41;3.87;;;3.57;;
6642;SDS011;3357;48.050;7.800;2023-09-07T13:22:08;3.90;;;3.40;;
6642;SDS011;3357;48.050;7.800;2023-09-07T13:24:33;5.33;;;3.70;;
6642;SDS011;3357;48.050;7.800;2023-09-07T13:26:59;4.00;;;3.60;;
6642;SDS011;3357;48.050;7.800;2023-09-07T13:29:24;3.30;;;3.10;;
6642;SDS011;3357;48.050;7.800;2023-09-07T13:31:51;3.53;;;3.23;;
6642;SDS011;3357;48.050;7.800;2023-09-07T13:34:18;3.67;;;3.37;;
6642;SDS011;3357;48.050;7.800;2023-09-07T13:36:44;3.80;;;3.50;;
6642;SDS011;3357;48.050;7.800;2023-09-07T13:39:09;4.40;;;3.60;;
6642;SDS011;3357;48.050;7.800;2023-09-07T13:41:34;6.30;;;3.30;;
6642;SDS011;3357;48.050;7.800;2023-09-07T13:44:00;6.43;;;3.37;;
6642;SDS011;3357;48.050;7.800;2023-09-07T13:46:26;3.33;;;3.07;;
6642;SDS011;3357;48.050;7.800;2023-09-07T13:48:51;3.20;;;3.00;;
6642;SDS011;3357;48.050;7.800;2023-09-07T13:51:16;4.30;;;3.70;;
6642;SDS011;3357;48.050;7.800;2023-09-07T13:53:42;3.40;;;2.90;;
6642;SDS011;3357;48.050;7.800;2023-09-07T13:56:07;12.40;;;3.10;;
6642;SDS011;3357;48.050;7.800;2023-09-07T13:58:32;3.00;;;2.80;;
6642;SDS011;3357;48.050;7.800;2023-09-07T14:00:57;4.43;;;3.40;;
6642;SDS011;3357;48.050;7.800;2023-09-07T14:03:23;3.00;;;2.90;;
6642;SDS011;3357;48.050;7.800;2023-09-07T14:05:48;3.47;;;3.20;;
6642;SDS011;3357;48.050;7.800;2023-09-07T14:08:13;4.20;;;3.33;;
6642;SDS011;3357;48.050;7.800;2023-09-07T14:10:39;3.47;;;3.17;;
6642;SDS011;3357;48.050;7.800;2023-09-07T14:13:04;3.17;;;2.97;;
6642;SDS011;3357;48.050;7.800;2023-09-07T14:15:29;3.83;;;2.97;;
6642;SDS011;3357;48.050;7.800;2023-09-07T14:17:56;3.50;;;3.30;;
6642;SDS011;3357;48.050;7.800;2023-09-07T14:20:21;4.13;;;3.27;;
6642;SDS011;3357;48.050;7.800;2023-09-07T14:22:47;4.10;;;3.03;;
6642;SDS011;3357;48.050;7.800;2023-09-07T14:25:12;3.73;;;3.27;;
6642;SDS011;3357;48.050;7.800;2023-09-07T14:27:38;4.50;;;3.30;;
6642;SDS011;3357;48.050;7.800;2023-09-07T14:30:04;4.00;;;3.70;;
6642;SDS011;3357;48.050;7.800;2023-09-07T14:32:30;3.20;;;3.00;;
6642;SDS011;3357;48.050;7.800;2023-09-07T14:34:55;5.37;;;3.60;;
6642;SDS011;3357;48.050;7.800;2023-09-07T14:37:20;3.70;;;3.40;;
6642;SDS011;3357;48.050;7.800;2023-09-07T14:39:46;3.40;;;3.10;;
6642;SDS011;3357;48.050;7.800;2023-09-07T14:42:14;4.57;;;3.20;;
6642;SDS011;3357;48.050;7.800;2023-09-07T14:44:42;2.93;;;2.73;;
6642;SDS011;3357;48.050;7.800;2023-09-07T14:47:07;3.13;;;2.93;;
6642;SDS011;3357;48.050;7.800;2023-09-07T14:49:35;3.40;;;3.20;;
6642;SDS011;3357;48.050;7.800;2023-09-07T14:52:00;3.20;;;2.83;;
6642;SDS011;3357;48.050;7.800;2023-09-07T14:54:25;3.23;;;2.93;;
6642;SDS011;3357;48.050;7.800;2023-09-07T14:56:51;2.97;;;2.77;;
6642;SDS011;3357;48.050;7.800;2023-09-07T14:59:16;2.70;;;2.50;;
6642;SDS011;3357;48.050;7.800;2023-09-07T15:01:41;3.00;;;2.80;;
6642;SDS011;3357;48.050;7.800;2023-09-07T15:04:07;5.27;;;2.63;;
6642;SDS011;3357;48.050;7.800;2023-09-07T15:06:33;3.50;;;2.60;;